createdAt,value
2018-03-02T00:00:14.537Z,42.73
2018-03-02T00:20:48.905Z,43.03
2018-03-02T00:41:24.466Z,43.84
2018-03-02T01:02:00.970Z,44.15
2018-03-02T01:22:36.242Z,44.77
2018-03-02T01:43:10.834Z,45.11
2018-03-02T02:03:44.048Z,45.88
2018-03-02T02:24:18.987Z,46.13
2018-03-02T02:44:53.332Z,46.81
2018-03-02T03:05:26.706Z,47.62
2018-03-02T03:26:02.647Z,48.16
2018-03-02T03:46:40.994Z,48.54
2018-03-02T04:07:20.877Z,49.35
2018-03-02T04:27:56.446Z,52.10
2018-03-02T04:48:31.961Z,54.01
2018-03-02T05:09:06.991Z,53.32
2018-03-02T05:29:42.264Z,53.89
2018-03-02T05:50:16.637Z,53.79
2018-03-02T06:10:50.659Z,53.88
2018-03-02T06:31:28.111Z,54.12
2018-03-02T06:52:06.121Z,54.75
2018-03-02T07:12:38.319Z,54.91
2018-03-02T07:33:13.591Z,55.01
2018-03-02T07:53:46.710Z,55.28
2018-03-02T08:14:21.979Z,54.54
2018-03-02T08:34:57.870Z,53.88
2018-03-02T08:55:32.807Z,54.00
2018-03-02T09:16:06.920Z,53.69
2018-03-02T09:36:40.919Z,53.16
2018-03-02T09:57:14.963Z,52.16
2018-03-02T10:17:48.574Z,51.24
2018-03-02T10:38:24.585Z,51.07
2018-03-02T10:58:59.859Z,50.49
2018-03-02T11:19:35.276Z,49.86
2018-03-02T11:40:10.097Z,49.84
2018-03-02T12:00:46.741Z,48.85
2018-03-02T12:21:20.640Z,48.32
2018-03-02T12:41:58.209Z,47.52
2018-03-02T13:02:31.184Z,47.12
2018-03-02T13:23:04.399Z,46.84
2018-03-02T13:43:39.581Z,46.54
2018-03-02T14:04:31.256Z,46.62
2018-03-02T14:25:08.246Z,47.17
2018-03-02T14:45:48.127Z,49.45
2018-03-02T15:06:23.705Z,49.27
2018-03-02T15:26:55.603Z,54.50
2018-03-02T15:47:31.184Z,59.80
2018-03-02T16:08:03.379Z,64.46
2018-03-02T16:28:39.892Z,70.57
2018-03-02T16:49:15.461Z,73.66
2018-03-02T17:09:51.360Z,77.40
2018-03-02T17:30:24.471Z,78.66
2018-03-02T17:50:59.799Z,79.87
2018-03-02T18:11:30.713Z,81.19
2018-03-02T18:32:03.840Z,82.05
2018-03-02T18:52:38.187Z,82.28
2018-03-02T19:13:14.385Z,82.17
2018-03-02T19:33:48.878Z,82.67
2018-03-02T19:54:27.313Z,81.86
2018-03-02T20:15:01.363Z,82.03
2018-03-02T20:35:39.164Z,81.03
2018-03-02T20:56:17.093Z,81.70
2018-03-02T21:16:53.109Z,81.30
2018-03-02T21:37:25.896Z,81.81
2018-03-02T21:58:03.322Z,80.72
2018-03-02T22:18:36.833Z,81.73
2018-03-02T22:39:14.784Z,82.05
2018-03-02T22:59:49.259Z,81.14
2018-03-02T23:20:25.330Z,82.47
2018-03-02T23:41:03.059Z,82.25
